Time;durP1;ratioP1;P1;durP2;ratioP2;P2;SDS_P1;SDS_P2;PMS_P1;PMS_P2;Temp;Humidity;BMP_temperature;BMP_pressure;BME280_temperature;BME280_humidity;BME280_pressure;Samples;Min_cycle;Max_cycle;Signal;HPM_P1;HPM_P2
2021/12/08 00:00:28;;;;;;;;;;;5.70;99.90;;;;;;5011369;28;19995;-70
2021/12/08 00:02:54;;;;;;;;;;;5.70;99.90;;;;;;5018685;28;19914;-71
2021/12/08 00:05:20;;;;;;;;;;;5.80;99.90;;;;;;5023574;28;19928;-70
2021/12/08 00:07:46;;;;;;;;;;;5.90;99.90;;;;;;5038999;28;19908;-69
2021/12/08 00:10:29;;;;;;;;;;;5.90;99.90;;;;;;5042731;28;19924;-71
2021/12/08 00:13:02;;;;;;;;;;;5.90;99.90;;;;;;5028546;28;19913;-70
2021/12/08 00:15:29;;;;;;;;;;;5.90;99.90;;;;;;5013643;28;19967;-72
2021/12/08 00:17:56;;;;;;;;;;;6.00;99.90;;;;;;5012183;28;19910;-71
2021/12/08 00:20:22;;;;;;;;;;;6.00;99.90;;;;;;5030697;28;19909;-71
2021/12/08 00:22:47;;;;;;;;;;;6.00;99.90;;;;;;5019552;28;19920;-70
2021/12/08 00:25:13;;;;;;;;;;;6.00;99.90;;;;;;5010781;28;20381;-72
2021/12/08 00:27:38;;;;;;;;;;;6.00;99.90;;;;;;5010524;28;19960;-71
2021/12/08 00:30:04;;;;;;;;;;;6.00;99.90;;;;;;5010725;28;19968;-72
2021/12/08 00:32:32;;;;;;;;;;;6.00;99.90;;;;;;5010432;28;19932;-71
2021/12/08 00:34:57;;;;;;;;;;;6.00;99.90;;;;;;5030313;28;19913;-68
2021/12/08 00:37:23;;;;;;;;;;;6.10;99.90;;;;;;5022348;28;20060;-71
2021/12/08 00:39:49;;;;;;;;;;;6.10;99.90;;;;;;5030265;28;19951;-69
2021/12/08 00:42:15;;;;;;;;;;;6.20;99.90;;;;;;5021426;28;20354;-70
2021/12/08 00:44:41;;;;;;;;;;;6.20;99.90;;;;;;5010561;28;20004;-70
2021/12/08 00:47:06;;;;;;;;;;;6.10;99.90;;;;;;5010076;28;19921;-71
2021/12/08 00:49:32;;;;;;;;;;;6.20;99.90;;;;;;5009980;28;19926;-70
2021/12/08 00:51:57;;;;;;;;;;;6.20;99.90;;;;;;5010051;28;19937;-71
2021/12/08 00:54:23;;;;;;;;;;;6.20;99.90;;;;;;5018491;28;19919;-71
2021/12/08 00:56:48;;;;;;;;;;;6.30;99.90;;;;;;5010518;28;20429;-73
2021/12/08 00:59:14;;;;;;;;;;;6.20;99.90;;;;;;5007385;28;19922;-70
2021/12/08 01:01:39;;;;;;;;;;;6.30;99.90;;;;;;5010732;28;19933;-69
2021/12/08 01:04:05;;;;;;;;;;;6.30;99.90;;;;;;5023867;28;19984;-72
2021/12/08 01:06:31;;;;;;;;;;;6.30;99.90;;;;;;5009713;28;19955;-72
2021/12/08 01:08:56;;;;;;;;;;;6.30;99.90;;;;;;5009817;28;19956;-72
2021/12/08 01:11:22;;;;;;;;;;;6.30;99.90;;;;;;5009589;28;20185;-70
2021/12/08 01:13:48;;;;;;;;;;;6.30;99.90;;;;;;5009530;28;19975;-69
2021/12/08 01:16:14;;;;;;;;;;;6.40;99.90;;;;;;5010017;28;19952;-70
2021/12/08 01:18:41;;;;;;;;;;;6.40;99.90;;;;;;5009060;28;19959;-70
2021/12/08 01:21:07;;;;;;;;;;;6.40;99.90;;;;;;5008506;28;19966;-69
2021/12/08 01:23:33;;;;;;;;;;;6.40;99.90;;;;;;5018040;28;20406;-69
2021/12/08 01:25:59;;;;;;;;;;;6.40;99.90;;;;;;5026715;28;20044;-72
2021/12/08 01:28:25;;;;;;;;;;;6.40;99.90;;;;;;5027660;28;19917;-71
2021/12/08 01:30:52;;;;;;;;;;;6.40;99.90;;;;;;5013469;28;19914;-71
2021/12/08 01:33:19;;;;;;;;;;;6.50;99.90;;;;;;5012611;28;19924;-69
2021/12/08 01:35:44;;;;;;;;;;;6.50;99.90;;;;;;5013433;28;20002;-71
2021/12/08 01:38:10;;;;;;;;;;;6.50;99.90;;;;;;5014956;28;19960;-70
2021/12/08 01:40:35;;;;;;;;;;;6.50;99.90;;;;;;5023654;28;20369;-68
2021/12/08 01:43:03;;;;;;;;;;;6.50;99.90;;;;;;5024676;28;20390;-68
2021/12/08 01:48:15;;;;;;;;;;;6.50;99.90;;;;;;5011797;28;19920;-71
2021/12/08 01:50:41;;;;;;;;;;;6.50;99.90;;;;;;5009640;28;20293;-71
2021/12/08 01:53:07;;;;;;;;;;;6.50;99.90;;;;;;5022585;28;19917;-72
2021/12/08 01:55:33;;;;;;;;;;;6.60;99.90;;;;;;5026930;28;20189;-73
2021/12/08 01:57:59;;;;;;;;;;;6.60;99.90;;;;;;5013773;28;20003;-69
2021/12/08 02:00:33;;;;;;;;;;;6.70;99.90;;;;;;5009380;28;20059;-69
2021/12/08 02:02:59;;;;;;;;;;;6.60;99.90;;;;;;5008596;28;19909;-72
2021/12/08 02:05:25;;;;;;;;;;;6.60;99.90;;;;;;5024152;28;20293;-69
2021/12/08 02:07:51;;;;;;;;;;;6.60;99.90;;;;;;5014413;28;20094;-72
2021/12/08 02:10:17;;;;;;;;;;;6.60;99.90;;;;;;5008364;28;20463;-68
2021/12/08 02:12:42;;;;;;;;;;;6.70;99.90;;;;;;5019041;28;19913;-71
2021/12/08 02:15:11;;;;;;;;;;;6.70;99.90;;;;;;5014099;28;19909;-71
2021/12/08 02:17:36;;;;;;;;;;;6.70;99.90;;;;;;5024055;28;19914;-68
2021/12/08 02:20:05;;;;;;;;;;;6.70;99.90;;;;;;5008500;28;20286;-71
2021/12/08 02:22:30;;;;;;;;;;;6.70;99.90;;;;;;5008577;28;19913;-69
2021/12/08 02:24:56;;;;;;;;;;;6.70;99.90;;;;;;5008454;28;19932;-70
2021/12/08 02:27:21;;;;;;;;;;;6.70;99.90;;;;;;5008764;28;19914;-69
2021/12/08 02:29:55;;;;;;;;;;;6.70;99.90;;;;;;5025949;28;19918;-72
2021/12/08 02:48:28;;;;;;;;;;;6.80;99.90;;;;;;5011319;28;19980;-69
2021/12/08 02:50:53;;;;;;;;;;;6.80;99.90;;;;;;5008292;28;20361;-69
2021/12/08 02:53:19;;;;;;;;;;;6.70;99.90;;;;;;5008827;28;20005;-71
2021/12/08 02:55:45;;;;;;;;;;;6.70;99.90;;;;;;5009162;28;20322;-69
2021/12/08 02:58:11;;;;;;;;;;;6.70;99.90;;;;;;5009089;28;19913;-72
2021/12/08 03:00:40;;;;;;;;;;;6.70;99.90;;;;;;5009578;28;19918;-70
2021/12/08 03:03:06;;;;;;;;;;;6.80;99.90;;;;;;5009550;28;19910;-71
2021/12/08 03:05:32;;;;;;;;;;;6.80;99.90;;;;;;5008298;28;20038;-72
2021/12/08 03:07:58;;;;;;;;;;;6.70;99.90;;;;;;5011281;28;19925;-70
2021/12/08 03:10:26;;;;;;;;;;;6.70;99.90;;;;;;5022278;28;19918;-71
2021/12/08 03:12:51;;;;;;;;;;;6.70;99.90;;;;;;5008026;28;19953;-69
2021/12/08 03:15:17;;;;;;;;;;;6.70;99.90;;;;;;5008407;28;19933;-72
2021/12/08 03:17:43;;;;;;;;;;;6.70;99.90;;;;;;5007718;28;19918;-72
2021/12/08 03:20:11;;;;;;;;;;;6.70;99.90;;;;;;5008573;28;19909;-73
2021/12/08 03:22:42;;;;;;;;;;;6.70;99.90;;;;;;5008196;28;20218;-73
2021/12/08 03:25:11;;;;;;;;;;;6.70;99.90;;;;;;5010983;28;19920;-69
2021/12/08 03:27:43;;;;;;;;;;;6.70;99.90;;;;;;5011609;28;19928;-70
2021/12/08 03:30:20;;;;;;;;;;;6.70;99.90;;;;;;5013928;28;20264;-70
2021/12/08 03:32:45;;;;;;;;;;;6.70;99.90;;;;;;5046308;28;19993;-73
2021/12/08 03:35:13;;;;;;;;;;;6.80;99.90;;;;;;5023107;28;20364;-71
2021/12/08 03:37:44;;;;;;;;;;;6.70;99.90;;;;;;5019697;28;19918;-70
2021/12/08 03:40:20;;;;;;;;;;;6.70;99.90;;;;;;5013033;28;19909;-69
2021/12/08 03:42:47;;;;;;;;;;;6.70;99.90;;;;;;5026964;28;19909;-69
2021/12/08 03:45:34;;;;;;;;;;;6.60;99.90;;;;;;5026841;28;19909;-68
2021/12/08 03:48:03;;;;;;;;;;;6.60;99.90;;;;;;5010903;28;20065;-71
2021/12/08 03:50:30;;;;;;;;;;;6.50;99.90;;;;;;5020938;28;19936;-70
2021/12/08 03:52:56;;;;;;;;;;;6.50;99.90;;;;;;5015954;28;19913;-69
2021/12/08 03:55:21;;;;;;;;;;;6.40;99.90;;;;;;5011532;28;20341;-70
2021/12/08 03:57:47;;;;;;;;;;;6.40;99.90;;;;;;5011487;28;19929;-70
2021/12/08 04:00:17;;;;;;;;;;;6.30;99.90;;;;;;5011211;28;19940;-68
2021/12/08 04:02:42;;;;;;;;;;;6.30;99.90;;;;;;5011369;28;19910;-70
2021/12/08 04:05:08;;;;;;;;;;;6.30;99.90;;;;;;5010829;28;19940;-71
2021/12/08 04:07:36;;;;;;;;;;;6.30;99.90;;;;;;5015346;28;20012;-72
2021/12/08 04:10:02;;;;;;;;;;;6.20;99.90;;;;;;5026058;28;19949;-73
2021/12/08 04:12:28;;;;;;;;;;;6.20;99.90;;;;;;5010731;28;19921;-71
2021/12/08 04:14:56;;;;;;;;;;;6.10;99.90;;;;;;5010949;28;19909;-68
2021/12/08 04:17:23;;;;;;;;;;;6.10;99.90;;;;;;5011093;28;20091;-70
2021/12/08 04:19:50;;;;;;;;;;;6.10;99.90;;;;;;5010999;28;20413;-71
2021/12/08 04:22:23;;;;;;;;;;;6.10;99.90;;;;;;5011333;28;19913;-72
2021/12/08 04:24:49;;;;;;;;;;;6.10;99.90;;;;;;5020278;28;19913;-72
2021/12/08 04:27:17;;;;;;;;;;;6.10;99.90;;;;;;5022316;28;19960;-73
2021/12/08 04:29:43;;;;;;;;;;;6.00;99.90;;;;;;5021941;28;19914;-73
2021/12/08 04:32:09;;;;;;;;;;;6.00;99.90;;;;;;5022933;28;20118;-72
2021/12/08 04:34:38;;;;;;;;;;;6.00;99.90;;;;;;5031487;28;19969;-72
2021/12/08 04:37:06;;;;;;;;;;;5.90;99.90;;;;;;5013859;28;19917;-70
2021/12/08 04:39:48;;;;;;;;;;;5.90;99.90;;;;;;5010712;28;19910;-73
2021/12/08 04:42:18;;;;;;;;;;;5.90;99.90;;;;;;5017190;28;20410;-70
2021/12/08 04:44:54;;;;;;;;;;;5.80;99.90;;;;;;5026006;28;19920;-74
2021/12/08 04:50:22;;;;;;;;;;;5.80;99.90;;;;;;5010320;28;20452;-71
2021/12/08 04:53:02;;;;;;;;;;;5.70;99.90;;;;;;5026628;28;19914;-72
2021/12/08 05:01:23;;;;;;;;;;;5.70;99.90;;;;;;5010696;28;20005;-74
2021/12/08 05:06:45;;;;;;;;;;;5.70;99.90;;;;;;5014924;28;19913;-70
2021/12/08 05:09:22;;;;;;;;;;;5.60;99.90;;;;;;5006750;28;19924;-71
2021/12/08 05:11:55;;;;;;;;;;;5.60;99.90;;;;;;5010941;28;19925;-72
2021/12/08 05:14:23;;;;;;;;;;;5.50;99.90;;;;;;5011508;28;19995;-71
2021/12/08 05:16:53;;;;;;;;;;;5.50;99.90;;;;;;5012156;28;19982;-72
2021/12/08 05:19:20;;;;;;;;;;;5.50;99.90;;;;;;5010942;28;19933;-73
2021/12/08 05:22:06;;;;;;;;;;;5.50;99.90;;;;;;5008187;28;19917;-74
2021/12/08 05:24:33;;;;;;;;;;;5.50;99.90;;;;;;5010834;28;20091;-71
2021/12/08 05:27:07;;;;;;;;;;;5.40;99.90;;;;;;5020915;28;19909;-74
2021/12/08 05:29:41;;;;;;;;;;;5.40;99.90;;;;;;5013054;28;19918;-72
2021/12/08 05:32:07;;;;;;;;;;;5.40;99.90;;;;;;5019139;28;19967;-72
2021/12/08 05:34:34;;;;;;;;;;;5.30;99.90;;;;;;5009938;28;19909;-68
2021/12/08 05:37:00;;;;;;;;;;;5.30;99.90;;;;;;5010198;28;19910;-69
2021/12/08 05:39:26;;;;;;;;;;;5.40;99.90;;;;;;5009386;28;20008;-72
2021/12/08 05:41:53;;;;;;;;;;;5.30;99.90;;;;;;5006871;28;19917;-68
2021/12/08 05:44:19;;;;;;;;;;;5.30;99.90;;;;;;5008703;28;22238;-68
2021/12/08 05:46:45;;;;;;;;;;;5.30;99.90;;;;;;5003375;28;19983;-71
2021/12/08 05:49:13;;;;;;;;;;;5.30;99.90;;;;;;5009851;28;20028;-70
2021/12/08 05:51:38;;;;;;;;;;;5.30;99.90;;;;;;5008975;28;19999;-72
2021/12/08 05:54:07;;;;;;;;;;;5.30;99.90;;;;;;5006443;28;20017;-70
2021/12/08 05:56:32;;;;;;;;;;;5.20;99.90;;;;;;5009303;28;20363;-69
2021/12/08 05:58:59;;;;;;;;;;;5.30;99.90;;;;;;5007107;28;19964;-71
2021/12/08 06:01:28;;;;;;;;;;;5.20;99.90;;;;;;5001195;28;19914;-71
2021/12/08 06:03:53;;;;;;;;;;;5.20;99.90;;;;;;5010808;28;19913;-70
2021/12/08 06:06:20;;;;;;;;;;;5.10;99.90;;;;;;5008468;28;19936;-72
2021/12/08 06:08:46;;;;;;;;;;;5.10;99.90;;;;;;5007431;28;19913;-70
2021/12/08 06:11:13;;;;;;;;;;;5.20;99.90;;;;;;5007472;28;20004;-69
2021/12/08 06:13:39;;;;;;;;;;;5.20;99.90;;;;;;5008543;28;19952;-70
2021/12/08 06:16:05;;;;;;;;;;;5.20;99.90;;;;;;5008216;28;19923;-72
2021/12/08 06:18:37;;;;;;;;;;;5.10;99.90;;;;;;5007784;28;19909;-72
2021/12/08 06:21:04;;;;;;;;;;;5.10;99.90;;;;;;5012129;28;20004;-70
2021/12/08 06:23:32;;;;;;;;;;;5.10;99.90;;;;;;5016339;28;20016;-73
2021/12/08 06:25:58;;;;;;;;;;;5.10;99.90;;;;;;5004155;28;20126;-68
2021/12/08 06:28:23;;;;;;;;;;;5.10;99.90;;;;;;5013255;28;19932;-71
2021/12/08 06:30:49;;;;;;;;;;;5.00;99.90;;;;;;5011158;28;20020;-73
2021/12/08 06:33:16;;;;;;;;;;;5.00;99.90;;;;;;5008566;28;19921;-73
2021/12/08 06:35:44;;;;;;;;;;;5.10;99.90;;;;;;5003175;28;19968;-70
2021/12/08 06:38:10;;;;;;;;;;;5.10;99.90;;;;;;5005929;28;20257;-69
2021/12/08 06:40:39;;;;;;;;;;;5.00;99.90;;;;;;5004649;28;19914;-71
2021/12/08 06:43:06;;;;;;;;;;;5.00;99.90;;;;;;5001967;28;19987;-71
2021/12/08 06:45:34;;;;;;;;;;;5.00;99.90;;;;;;5005872;28;19916;-71
2021/12/08 06:48:02;;;;;;;;;;;5.00;99.90;;;;;;5023397;28;19909;-68
2021/12/08 06:50:32;;;;;;;;;;;5.00;99.90;;;;;;5003811;28;19944;-70
2021/12/08 06:52:58;;;;;;;;;;;5.00;99.90;;;;;;5010775;28;19960;-69
2021/12/08 06:55:27;;;;;;;;;;;5.00;99.90;;;;;;5021497;28;20577;-69
2021/12/08 06:57:58;;;;;;;;;;;5.00;99.90;;;;;;5008369;28;19913;-68
2021/12/08 07:00:49;;;;;;;;;;;5.00;99.90;;;;;;5016493;28;19918;-69
2021/12/08 07:06:18;;;;;;;;;;;5.10;99.90;;;;;;4981514;28;19921;-69
2021/12/08 07:08:46;;;;;;;;;;;5.00;99.90;;;;;;5012880;28;19913;-70
2021/12/08 07:11:13;;;;;;;;;;;5.00;99.90;;;;;;5008935;28;19941;-68
2021/12/08 07:13:39;;;;;;;;;;;5.00;99.90;;;;;;5007926;28;19918;-70
2021/12/08 07:16:09;;;;;;;;;;;5.00;99.90;;;;;;5008316;28;19909;-72
2021/12/08 07:18:41;;;;;;;;;;;5.00;99.90;;;;;;5007686;28;20514;-70
2021/12/08 07:21:08;;;;;;;;;;;5.00;99.90;;;;;;5011133;28;20382;-69
2021/12/08 07:23:37;;;;;;;;;;;5.00;99.90;;;;;;5007089;28;19917;-69
2021/12/08 07:26:05;;;;;;;;;;;5.00;99.90;;;;;;5007696;28;19980;-67
2021/12/08 07:28:31;;;;;;;;;;;5.00;99.90;;;;;;5008211;28;19913;-71
2021/12/08 07:30:58;;;;;;;;;;;5.00;99.90;;;;;;5015725;28;20289;-70
2021/12/08 07:33:26;;;;;;;;;;;5.00;99.90;;;;;;5007765;28;20030;-67
2021/12/08 07:35:53;;;;;;;;;;;5.00;99.90;;;;;;5008075;28;19913;-69
2021/12/08 07:38:21;;;;;;;;;;;5.00;99.90;;;;;;5007947;28;20463;-68
2021/12/08 07:40:55;;;;;;;;;;;5.00;99.90;;;;;;5007326;28;19914;-67
2021/12/08 07:43:22;;;;;;;;;;;5.10;99.90;;;;;;5007591;28;19921;-68
2021/12/08 07:45:49;;;;;;;;;;;5.10;99.90;;;;;;5007195;28;19928;-66
2021/12/08 07:48:20;;;;;;;;;;;5.10;99.90;;;;;;5007261;28;20416;-67
2021/12/08 07:50:48;;;;;;;;;;;5.10;99.90;;;;;;5008277;28;19914;-69
2021/12/08 07:53:15;;;;;;;;;;;5.10;99.90;;;;;;5023317;28;19922;-69
2021/12/08 07:55:42;;;;;;;;;;;5.10;99.90;;;;;;5024476;28;20333;-67
2021/12/08 07:58:08;;;;;;;;;;;5.20;99.90;;;;;;5039768;28;19913;-69
2021/12/08 08:00:37;;;;;;;;;;;5.20;99.90;;;;;;5017503;28;20259;-68
2021/12/08 08:03:03;;;;;;;;;;;5.20;99.90;;;;;;5011598;28;20056;-67
2021/12/08 08:05:29;;;;;;;;;;;5.20;99.90;;;;;;5007587;28;19924;-69
2021/12/08 08:07:56;;;;;;;;;;;5.20;99.90;;;;;;5019355;28;19917;-69
2021/12/08 08:10:22;;;;;;;;;;;5.10;99.90;;;;;;5007854;28;19944;-67
2021/12/08 08:12:48;;;;;;;;;;;5.20;99.90;;;;;;5010617;28;20450;-69
2021/12/08 08:15:16;;;;;;;;;;;5.10;99.90;;;;;;5011133;28;19914;-68
2021/12/08 08:17:45;;;;;;;;;;;5.10;99.90;;;;;;5012314;28;20009;-70
2021/12/08 08:20:23;;;;;;;;;;;5.20;99.90;;;;;;5013155;28;19914;-69
2021/12/08 08:22:48;;;;;;;;;;;5.10;99.90;;;;;;5026331;28;19913;-70
2021/12/08 08:25:15;;;;;;;;;;;5.20;99.90;;;;;;5010786;28;19996;-71
2021/12/08 08:27:40;;;;;;;;;;;5.20;99.90;;;;;;5010434;28;19996;-70
2021/12/08 08:30:08;;;;;;;;;;;5.30;99.90;;;;;;5010122;28;20013;-68
2021/12/08 08:32:36;;;;;;;;;;;5.40;99.90;;;;;;5019060;28;19976;-69
2021/12/08 08:35:24;;;;;;;;;;;5.30;99.90;;;;;;5010656;28;19933;-68
2021/12/08 08:37:50;;;;;;;;;;;5.30;99.90;;;;;;5010027;28;19914;-68
2021/12/08 08:40:42;;;;;;;;;;;5.30;99.90;;;;;;5008153;28;19920;-69
2021/12/08 08:43:08;;;;;;;;;;;5.30;99.90;;;;;;5010075;28;20392;-68
2021/12/08 08:45:37;;;;;;;;;;;5.30;99.90;;;;;;5008157;28;19910;-69
2021/12/08 08:48:07;;;;;;;;;;;5.30;99.90;;;;;;5010977;28;20000;-69
2021/12/08 08:50:38;;;;;;;;;;;5.30;99.90;;;;;;5009154;28;19917;-70
2021/12/08 08:53:04;;;;;;;;;;;5.30;99.90;;;;;;5012287;28;19921;-69
2021/12/08 08:55:35;;;;;;;;;;;5.30;99.90;;;;;;5012100;28;19983;-69
2021/12/08 08:58:03;;;;;;;;;;;5.30;99.90;;;;;;5008023;28;19917;-70
2021/12/08 09:00:31;;;;;;;;;;;5.40;99.90;;;;;;5009955;28;20031;-67
2021/12/08 09:02:59;;;;;;;;;;;5.50;99.90;;;;;;5008971;28;19910;-70
2021/12/08 09:05:28;;;;;;;;;;;5.50;99.90;;;;;;5009362;28;19921;-69
2021/12/08 09:07:55;;;;;;;;;;;5.60;99.90;;;;;;5008903;28;19960;-68
2021/12/08 09:10:27;;;;;;;;;;;5.60;99.90;;;;;;5010487;28;20111;-71
2021/12/08 09:13:04;;;;;;;;;;;5.50;99.90;;;;;;5009898;28;19956;-69
2021/12/08 09:15:33;;;;;;;;;;;5.50;99.90;;;;;;5008855;28;20000;-68
2021/12/08 09:18:00;;;;;;;;;;;5.50;99.90;;;;;;5008754;28;19924;-67
2021/12/08 09:20:27;;;;;;;;;;;5.40;99.90;;;;;;5009247;28;19915;-69
2021/12/08 09:22:57;;;;;;;;;;;5.40;99.90;;;;;;5011215;28;19909;-69
2021/12/08 09:25:30;;;;;;;;;;;5.50;99.90;;;;;;5008913;28;20129;-68
2021/12/08 09:27:57;;;;;;;;;;;5.50;99.90;;;;;;5008760;28;19925;-69
2021/12/08 09:30:25;;;;;;;;;;;5.50;99.90;;;;;;5004418;28;19932;-67
2021/12/08 09:32:53;;;;;;;;;;;5.60;99.90;;;;;;5005396;28;20384;-69
2021/12/08 09:35:21;;;;;;;;;;;5.60;99.90;;;;;;5008687;28;19914;-67
2021/12/08 09:37:52;;;;;;;;;;;5.70;99.90;;;;;;4998913;28;19968;-68
2021/12/08 09:40:32;;;;;;;;;;;5.70;99.90;;;;;;5007486;28;19979;-67
2021/12/08 09:43:01;;;;;;;;;;;5.70;99.90;;;;;;5014109;28;20124;-65
2021/12/08 09:45:31;;;;;;;;;;;5.70;99.90;;;;;;5012396;28;19910;-70
2021/12/08 09:47:57;;;;;;;;;;;5.70;99.90;;;;;;5007399;28;20009;-67
2021/12/08 09:50:22;;;;;;;;;;;5.80;99.90;;;;;;5008129;28;20009;-66
2021/12/08 09:52:49;;;;;;;;;;;5.80;99.90;;;;;;5023116;28;19929;-69
2021/12/08 09:55:16;;;;;;;;;;;5.80;99.90;;;;;;5009139;28;19921;-65
2021/12/08 09:57:42;;;;;;;;;;;5.80;99.90;;;;;;5008679;28;20029;-67
2021/12/08 10:00:12;;;;;;;;;;;5.80;99.90;;;;;;5008226;28;19914;-70
2021/12/08 10:02:37;;;;;;;;;;;5.80;99.90;;;;;;5007720;28;20293;-66
2021/12/08 10:05:03;;;;;;;;;;;5.80;99.90;;;;;;5008472;28;19917;-68
2021/12/08 10:07:28;;;;;;;;;;;5.90;99.90;;;;;;5009070;28;19971;-66
2021/12/08 10:09:54;;;;;;;;;;;5.90;99.90;;;;;;5008244;28;19913;-67
2021/12/08 10:12:20;;;;;;;;;;;5.90;99.90;;;;;;5006473;28;19913;-69
2021/12/08 10:14:46;;;;;;;;;;;5.90;99.90;;;;;;5006904;28;19953;-69
2021/12/08 10:17:13;;;;;;;;;;;6.00;99.90;;;;;;5009638;28;20415;-69
2021/12/08 10:19:39;;;;;;;;;;;6.00;99.90;;;;;;5008056;28;19913;-69
2021/12/08 10:22:14;;;;;;;;;;;6.00;99.90;;;;;;5008874;28;20181;-69
2021/12/08 10:24:41;;;;;;;;;;;6.00;99.90;;;;;;5013838;28;20485;-68
2021/12/08 10:27:07;;;;;;;;;;;6.00;99.90;;;;;;5010817;28;20390;-69
2021/12/08 10:29:33;;;;;;;;;;;6.00;99.90;;;;;;5018441;28;19914;-68
2021/12/08 10:32:00;;;;;;;;;;;6.00;99.90;;;;;;5021997;28;20029;-70
2021/12/08 10:34:34;;;;;;;;;;;6.00;99.90;;;;;;5015825;28;19918;-69
2021/12/08 10:37:01;;;;;;;;;;;6.10;99.90;;;;;;5011237;28;19909;-71
2021/12/08 10:39:28;;;;;;;;;;;6.20;99.90;;;;;;5008064;28;19918;-68
2021/12/08 10:42:00;;;;;;;;;;;6.30;99.90;;;;;;5008464;28;20010;-69
2021/12/08 10:44:27;;;;;;;;;;;6.20;99.90;;;;;;5007827;28;19925;-67
2021/12/08 10:46:57;;;;;;;;;;;6.30;99.90;;;;;;5005844;28;19953;-68
2021/12/08 10:54:43;;;;;;;;;;;6.40;99.90;;;;;;5008730;28;19924;-69
2021/12/08 10:57:38;;;;;;;;;;;6.40;99.90;;;;;;5008543;28;19921;-67
2021/12/08 11:00:09;;;;;;;;;;;6.50;99.90;;;;;;4999727;28;20360;-68
2021/12/08 11:02:39;;;;;;;;;;;6.60;99.90;;;;;;5009082;28;19917;-67
2021/12/08 11:05:06;;;;;;;;;;;6.60;99.90;;;;;;5008296;28;20000;-66
2021/12/08 11:07:32;;;;;;;;;;;6.60;99.90;;;;;;5024807;28;19940;-70
2021/12/08 11:09:58;;;;;;;;;;;6.60;99.90;;;;;;5028721;28;20342;-68
2021/12/08 11:12:40;;;;;;;;;;;6.60;99.90;;;;;;5029783;28;20273;-67
2021/12/08 11:15:15;;;;;;;;;;;6.80;99.90;;;;;;5029123;28;19909;-67
2021/12/08 11:17:41;;;;;;;;;;;6.80;99.90;;;;;;5011656;28;20332;-71
2021/12/08 11:20:14;;;;;;;;;;;6.80;99.90;;;;;;5016056;28;19945;-69
2021/12/08 11:22:40;;;;;;;;;;;6.90;99.90;;;;;;5043861;28;19909;-71
2021/12/08 11:25:07;;;;;;;;;;;6.80;99.90;;;;;;5028221;28;19909;-68
2021/12/08 11:27:36;;;;;;;;;;;7.00;99.90;;;;;;5021814;28;20020;-68
2021/12/08 11:30:13;;;;;;;;;;;7.40;99.90;;;;;;5010988;28;19914;-69
2021/12/08 11:32:38;;;;;;;;;;;7.70;99.90;;;;;;5009774;28;20282;-68
2021/12/08 11:35:04;;;;;;;;;;;7.80;99.90;;;;;;5009621;28;19963;-66
2021/12/08 11:37:34;;;;;;;;;;;8.00;99.90;;;;;;5025182;28;19917;-68
2021/12/08 11:40:01;;;;;;;;;;;8.10;99.90;;;;;;5019147;28;19913;-72
2021/12/08 11:42:29;;;;;;;;;;;8.00;99.90;;;;;;5028674;28;19920;-68
2021/12/08 11:44:57;;;;;;;;;;;8.10;99.90;;;;;;5020053;28;19914;-68
2021/12/08 11:47:27;;;;;;;;;;;8.30;99.90;;;;;;5012070;28;19969;-69
2021/12/08 11:49:58;;;;;;;;;;;8.40;99.90;;;;;;5012669;28;20015;-69
2021/12/08 11:52:29;;;;;;;;;;;8.30;99.90;;;;;;5012020;28;19916;-66
2021/12/08 11:55:09;;;;;;;;;;;8.30;99.90;;;;;;5017315;28;19916;-66
2021/12/08 11:57:40;;;;;;;;;;;8.30;99.90;;;;;;5028764;28;19917;-68
2021/12/08 12:00:19;;;;;;;;;;;8.10;99.90;;;;;;5012001;28;19916;-68
2021/12/08 12:02:51;;;;;;;;;;;8.10;99.90;;;;;;5012426;28;19909;-67
2021/12/08 12:05:22;;;;;;;;;;;8.30;99.90;;;;;;5012103;28;19917;-64
2021/12/08 12:07:47;;;;;;;;;;;8.50;99.90;;;;;;5028187;28;19920;-66
2021/12/08 12:10:15;;;;;;;;;;;8.50;99.90;;;;;;5031632;28;20339;-68
2021/12/08 12:12:42;;;;;;;;;;;8.60;99.90;;;;;;5030755;28;21282;-71
2021/12/08 12:15:08;;;;;;;;;;;8.70;99.90;;;;;;5046971;28;19915;-66
2021/12/08 12:17:34;;;;;;;;;;;8.80;99.90;;;;;;5031315;28;19947;-68
2021/12/08 12:20:08;;;;;;;;;;;8.90;99.90;;;;;;5015074;28;19945;-66
2021/12/08 12:22:33;;;;;;;;;;;8.90;99.90;;;;;;5011867;28;20349;-67
2021/12/08 12:25:11;;;;;;;;;;;8.70;99.90;;;;;;5027222;28;19909;-67
2021/12/08 12:28:02;;;;;;;;;;;8.80;99.90;;;;;;5011524;28;19917;-68
2021/12/08 12:30:50;;;;;;;;;;;9.00;99.90;;;;;;5015017;28;19920;-66
2021/12/08 12:33:17;;;;;;;;;;;9.10;99.90;;;;;;5014218;28;20011;-67
2021/12/08 12:35:53;;;;;;;;;;;8.70;99.90;;;;;;5011625;28;19909;-70
2021/12/08 12:38:31;;;;;;;;;;;8.40;99.90;;;;;;5014590;28;19917;-68
2021/12/08 12:40:57;;;;;;;;;;;8.00;99.90;;;;;;5013640;28;20476;-67
2021/12/08 12:43:25;;;;;;;;;;;8.10;99.90;;;;;;5012244;28;19916;-68
2021/12/08 12:46:00;;;;;;;;;;;8.40;99.90;;;;;;5012967;28;19914;-67
2021/12/08 12:48:27;;;;;;;;;;;8.40;99.90;;;;;;5011414;28;20437;-70
2021/12/08 12:50:55;;;;;;;;;;;8.30;99.90;;;;;;5025983;28;20004;-68
2021/12/08 12:53:39;;;;;;;;;;;8.20;99.90;;;;;;5012347;28;19953;-68
2021/12/08 12:56:05;;;;;;;;;;;8.00;99.90;;;;;;5010995;28;19910;-68
2021/12/08 12:58:41;;;;;;;;;;;7.70;99.90;;;;;;5012193;28;19913;-66
2021/12/08 13:01:11;;;;;;;;;;;7.60;99.90;;;;;;5011649;28;19913;-66
2021/12/08 13:03:48;;;;;;;;;;;7.60;99.90;;;;;;5026623;28;20400;-67
2021/12/08 13:06:15;;;;;;;;;;;7.60;99.90;;;;;;5015278;28;19955;-68
2021/12/08 13:08:46;;;;;;;;;;;7.40;99.90;;;;;;5031130;28;19916;-68
2021/12/08 13:11:35;;;;;;;;;;;7.30;99.90;;;;;;5031404;28;19970;-67
2021/12/08 13:14:03;;;;;;;;;;;7.40;99.90;;;;;;5030495;28;19945;-67
2021/12/08 13:16:34;;;;;;;;;;;7.50;99.90;;;;;;5030579;28;20003;-67
2021/12/08 13:19:00;;;;;;;;;;;7.50;99.90;;;;;;5030284;28;20385;-67
2021/12/08 13:21:38;;;;;;;;;;;7.50;99.90;;;;;;5035085;28;19908;-69
2021/12/08 13:24:04;;;;;;;;;;;7.50;99.90;;;;;;5048133;28;19984;-68
2021/12/08 13:26:43;;;;;;;;;;;7.40;99.90;;;;;;5031752;28;19937;-68
2021/12/08 13:29:18;;;;;;;;;;;7.30;99.90;;;;;;5045512;28;20000;-67
2021/12/08 13:31:58;;;;;;;;;;;7.20;99.90;;;;;;5027930;28;19988;-66
2021/12/08 13:34:24;;;;;;;;;;;7.20;99.90;;;;;;5021927;28;19925;-68
2021/12/08 13:36:49;;;;;;;;;;;7.10;99.90;;;;;;5011487;28;19909;-68
2021/12/08 13:39:28;;;;;;;;;;;7.20;99.90;;;;;;5011596;28;19909;-68
2021/12/08 13:41:59;;;;;;;;;;;7.10;99.90;;;;;;5011583;28;19916;-68
2021/12/08 13:44:35;;;;;;;;;;;7.10;99.90;;;;;;5010913;28;19913;-69
2021/12/08 13:47:08;;;;;;;;;;;7.20;99.90;;;;;;5010436;28;20110;-66
2021/12/08 13:49:46;;;;;;;;;;;7.20;99.90;;;;;;5009777;28;19913;-66
2021/12/08 13:52:12;;;;;;;;;;;7.20;99.90;;;;;;5009877;28;19968;-66
2021/12/08 13:54:40;;;;;;;;;;;7.20;99.90;;;;;;5010426;28;19909;-66
2021/12/08 13:57:24;;;;;;;;;;;7.20;99.90;;;;;;5025517;28;19910;-66
2021/12/08 14:00:01;;;;;;;;;;;7.20;99.90;;;;;;5010596;28;19913;-66
2021/12/08 14:02:41;;;;;;;;;;;7.20;99.90;;;;;;5010012;28;19909;-67
2021/12/08 14:05:09;;;;;;;;;;;7.10;99.90;;;;;;5016523;28;19936;-67
2021/12/08 14:07:36;;;;;;;;;;;7.10;99.90;;;;;;5034189;28;19909;-70
2021/12/08 14:10:07;;;;;;;;;;;7.10;99.90;;;;;;5039592;28;19917;-66
2021/12/08 14:12:59;;;;;;;;;;;7.00;99.90;;;;;;5035536;28;20165;-67
2021/12/08 14:15:30;;;;;;;;;;;7.00;99.90;;;;;;5028160;28;19913;-66
2021/12/08 14:18:11;;;;;;;;;;;7.00;99.90;;;;;;5033820;28;19916;-65
2021/12/08 14:20:36;;;;;;;;;;;6.90;99.90;;;;;;5029739;28;20385;-67
2021/12/08 14:23:02;;;;;;;;;;;6.80;99.90;;;;;;5029820;28;19909;-65
2021/12/08 14:25:31;;;;;;;;;;;6.80;99.90;;;;;;5029458;28;19913;-69
2021/12/08 14:27:56;;;;;;;;;;;6.80;99.90;;;;;;5029616;28;20381;-67
2021/12/08 14:30:22;;;;;;;;;;;6.80;99.90;;;;;;5028520;28;19928;-67
2021/12/08 14:33:03;;;;;;;;;;;6.80;99.90;;;;;;5010980;28;19913;-68
2021/12/08 14:35:29;;;;;;;;;;;6.80;99.90;;;;;;5010048;28;19932;-70
2021/12/08 14:38:04;;;;;;;;;;;6.80;99.90;;;;;;5010092;28;19909;-67
2021/12/08 14:40:30;;;;;;;;;;;6.80;99.90;;;;;;5009653;28;19909;-66
2021/12/08 14:42:56;;;;;;;;;;;6.70;99.90;;;;;;5009832;28;20346;-68
2021/12/08 14:45:26;;;;;;;;;;;6.70;99.90;;;;;;5024683;28;20024;-69
2021/12/08 14:47:52;;;;;;;;;;;6.60;99.90;;;;;;5024462;28;19982;-66
2021/12/08 14:50:23;;;;;;;;;;;6.60;99.90;;;;;;5009236;28;20029;-68
2021/12/08 14:52:50;;;;;;;;;;;6.70;99.90;;;;;;5008260;28;19913;-66
2021/12/08 14:55:21;;;;;;;;;;;6.60;99.90;;;;;;5009883;28;19909;-67
2021/12/08 14:57:49;;;;;;;;;;;6.50;99.90;;;;;;5015617;28;19916;-68
2021/12/08 15:00:16;;;;;;;;;;;6.50;99.90;;;;;;5020520;28;19909;-68
2021/12/08 15:02:45;;;;;;;;;;;6.50;99.90;;;;;;5026735;28;19909;-69
2021/12/08 15:05:11;;;;;;;;;;;6.50;99.90;;;;;;5028986;28;19929;-69
2021/12/08 15:07:37;;;;;;;;;;;6.40;99.90;;;;;;5038017;28;20059;-69
2021/12/08 15:10:03;;;;;;;;;;;6.40;99.90;;;;;;5029786;28;19920;-67
2021/12/08 15:12:29;;;;;;;;;;;6.30;99.90;;;;;;5037622;28;19913;-68
2021/12/08 15:14:54;;;;;;;;;;;6.30;99.90;;;;;;5029396;28;19909;-68
2021/12/08 15:17:30;;;;;;;;;;;6.30;99.90;;;;;;5029390;28;20236;-71
2021/12/08 15:19:56;;;;;;;;;;;6.30;99.90;;;;;;5034113;28;19916;-70